createdAt,value
2019-02-22T00:02:25.935Z,92.60
2019-02-22T00:04:56.533Z,92.89
2019-02-22T00:07:26.113Z,92.89
2019-02-22T00:09:55.710Z,93.26
2019-02-22T00:12:25.302Z,93.58
2019-02-22T00:14:55.048Z,93.21
2019-02-22T00:17:24.704Z,93.21
2019-02-22T00:19:54.918Z,93.54
2019-02-22T00:22:26.142Z,93.54
2019-02-22T00:24:55.605Z,93.80
2019-02-22T00:27:26.709Z,93.80
2019-02-22T00:29:58.290Z,93.27
2019-02-22T00:32:29.700Z,92.84
2019-02-22T00:34:59.324Z,93.29
2019-02-22T00:37:28.927Z,93.29
2019-02-22T00:40:00.297Z,93.84
2019-02-22T00:42:30.660Z,93.84
2019-02-22T00:45:00.452Z,93.75
2019-02-22T00:47:30.572Z,92.91
2019-02-22T00:50:01.926Z,92.60
2019-02-22T00:52:32.641Z,92.69
2019-02-22T00:55:05.653Z,92.64
2019-02-22T00:57:36.324Z,92.64
2019-02-22T01:00:06.569Z,92.41
2019-02-22T01:02:36.454Z,92.19
2019-02-22T01:05:06.394Z,92.09
2019-02-22T01:07:35.986Z,92.09
2019-02-22T01:10:07.208Z,92.96
2019-02-22T01:12:37.243Z,92.27
2019-02-22T01:15:09.167Z,92.27
2019-02-22T01:17:38.690Z,92.29
2019-02-22T01:20:08.398Z,92.29
2019-02-22T01:22:38.931Z,93.08
2019-02-22T01:25:08.471Z,93.08
2019-02-22T01:27:38.953Z,92.56
2019-02-22T01:30:11.797Z,91.73
2019-02-22T01:32:42.577Z,91.73
2019-02-22T01:35:12.601Z,92.25
2019-02-22T01:37:42.126Z,92.25
2019-02-22T01:40:12.679Z,91.56
2019-02-22T01:42:44.017Z,91.86
2019-02-22T01:45:13.475Z,91.35
2019-02-22T01:47:43.604Z,91.69
2019-02-22T01:50:20.467Z,91.69
2019-02-22T01:52:50.189Z,92.20
2019-02-22T01:55:21.923Z,92.94
2019-02-22T01:57:53.515Z,93.23
2019-02-22T02:00:22.940Z,93.59
2019-02-22T02:02:55.167Z,93.59
2019-02-22T02:05:24.838Z,93.59
2019-02-22T02:07:57.853Z,93.96
2019-02-22T02:10:27.382Z,94.18
2019-02-22T02:12:56.858Z,94.26
2019-02-22T02:15:26.358Z,94.26
2019-02-22T02:17:55.773Z,94.47
2019-02-22T02:20:25.599Z,94.49
2019-02-22T02:22:57.711Z,94.54
2019-02-22T02:25:29.413Z,94.16
2019-02-22T02:28:00.546Z,94.04
2019-02-22T02:30:34.676Z,93.92
2019-02-22T02:33:04.728Z,93.92
2019-02-22T02:35:35.234Z,93.97
2019-02-22T02:38:05.367Z,94.17
2019-02-22T02:40:35.134Z,94.17
2019-02-22T02:43:05.332Z,94.09
2019-02-22T02:45:39.474Z,94.13
2019-02-22T02:48:09.164Z,93.41
2019-02-22T02:50:40.322Z,93.41
2019-02-22T02:53:11.676Z,93.47
2019-02-22T02:55:41.313Z,93.47
2019-02-22T02:58:11.746Z,93.30
2019-02-22T03:00:41.843Z,93.56
2019-02-22T03:03:12.390Z,93.56
2019-02-22T03:06:00.705Z,93.43
2019-02-22T03:08:34.080Z,94.19
2019-02-22T03:11:06.860Z,93.74
2019-02-22T03:13:36.473Z,93.74
2019-02-22T03:16:05.917Z,93.42
2019-02-22T03:18:36.013Z,92.93
2019-02-22T03:21:05.540Z,93.43
2019-02-22T03:23:35.488Z,92.80
2019-02-22T03:26:06.141Z,92.53
2019-02-22T03:28:35.715Z,92.53
2019-02-22T03:31:06.363Z,91.77
2019-02-22T03:33:36.627Z,91.77
2019-02-22T03:36:06.497Z,92.33
2019-02-22T03:38:36.258Z,92.33
2019-02-22T03:41:06.428Z,92.63
2019-02-22T03:43:36.416Z,92.66
2019-02-22T03:46:07.355Z,91.65
2019-02-22T03:48:37.156Z,92.78
2019-02-22T03:51:06.914Z,92.78
2019-02-22T03:53:52.493Z,92.97
2019-02-22T03:56:22.688Z,92.59
2019-02-22T03:58:52.412Z,92.59
2019-02-22T04:01:22.219Z,93.16
2019-02-22T04:03:52.688Z,93.16
2019-02-22T04:06:22.587Z,93.33
2019-02-22T04:08:52.527Z,93.72
2019-02-22T04:11:22.345Z,94.59
2019-02-22T04:13:52.000Z,94.59
2019-02-22T04:16:22.222Z,94.42
2019-02-22T04:18:52.090Z,94.53
2019-02-22T04:21:26.086Z,94.53
2019-02-22T04:23:57.989Z,94.06
2019-02-22T04:26:27.796Z,94.23
2019-02-22T04:28:57.670Z,93.65
2019-02-22T04:31:27.914Z,93.57
2019-02-22T04:33:57.840Z,93.57
2019-02-22T04:36:30.456Z,93.26
2019-02-22T04:39:00.628Z,93.24
2019-02-22T04:41:31.525Z,93.24
2019-02-22T04:44:01.429Z,93.33
2019-02-22T04:46:34.756Z,93.03
2019-02-22T04:49:04.532Z,93.03
2019-02-22T04:51:35.001Z,93.43
2019-02-22T04:54:04.813Z,93.07
2019-02-22T04:56:34.655Z,92.79
2019-02-22T04:59:04.503Z,93.18
2019-02-22T05:01:34.426Z,92.84
2019-02-22T05:04:05.774Z,92.80
2019-02-22T05:06:38.129Z,93.45
2019-02-22T05:09:07.981Z,93.67
2019-02-22T05:11:37.964Z,93.67
2019-02-22T05:14:07.910Z,93.36
2019-02-22T05:16:37.881Z,92.74
2019-02-22T05:19:08.088Z,93.32
2019-02-22T05:21:40.051Z,93.09
2019-02-22T05:24:10.034Z,93.09
2019-02-22T05:26:40.126Z,93.19
2019-02-22T05:29:09.815Z,93.57
2019-02-22T05:31:42.675Z,93.57
2019-02-22T05:34:12.670Z,93.01
2019-02-22T05:36:44.300Z,93.51
2019-02-22T05:39:19.026Z,93.86
2019-02-22T05:41:46.344Z,93.86
2019-02-22T05:44:16.649Z,93.44
2019-02-22T05:46:46.274Z,94.34
2019-02-22T05:49:16.255Z,94.34
2019-02-22T05:51:46.905Z,94.21
2019-02-22T05:54:16.684Z,94.17
2019-02-22T05:56:46.454Z,94.17
2019-02-22T05:59:16.112Z,93.72
2019-02-22T06:01:46.112Z,93.97
2019-02-22T06:04:16.138Z,94.11
2019-02-22T06:06:46.060Z,94.11
2019-02-22T06:09:16.432Z,93.73
2019-02-22T06:11:47.318Z,93.57
2019-02-22T06:14:17.391Z,93.57
2019-02-22T06:16:47.124Z,94.37
2019-02-22T06:19:17.438Z,94.28
2019-02-22T06:21:47.206Z,93.71
2019-02-22T06:24:17.322Z,93.71
2019-02-22T06:26:50.082Z,93.87
2019-02-22T06:29:19.741Z,93.52
2019-02-22T06:31:49.680Z,93.58
2019-02-22T06:34:19.278Z,93.97
2019-02-22T06:37:00.870Z,93.97
2019-02-22T06:39:20.697Z,93.58
2019-02-22T06:41:51.630Z,93.66
2019-02-22T06:44:22.084Z,93.66
2019-02-22T06:46:52.419Z,94.07
2019-02-22T06:49:22.292Z,94.07
2019-02-22T06:51:52.062Z,93.82
2019-02-22T06:54:21.909Z,93.75
2019-02-22T06:56:51.643Z,93.67
2019-02-22T06:59:21.442Z,93.67
2019-02-22T07:01:51.278Z,93.30
2019-02-22T07:04:21.659Z,93.52
2019-02-22T07:06:54.395Z,93.08
2019-02-22T07:09:24.089Z,93.74
2019-02-22T07:12:15.813Z,93.74
2019-02-22T07:14:45.504Z,93.60
2019-02-22T07:17:15.321Z,93.92
2019-02-22T07:19:45.384Z,93.59
2019-02-22T07:22:15.349Z,94.08
2019-02-22T07:24:45.267Z,93.83
2019-02-22T07:27:15.508Z,93.06
2019-02-22T07:29:46.071Z,93.10
2019-02-22T07:32:16.145Z,93.34
2019-02-22T07:34:46.194Z,93.73
2019-02-22T07:37:16.034Z,93.73
2019-02-22T07:39:45.666Z,93.26
2019-02-22T07:42:16.383Z,93.26
2019-02-22T07:44:46.217Z,93.41
2019-02-22T07:47:16.103Z,93.41
2019-02-22T07:49:45.983Z,92.82
2019-02-22T07:52:15.744Z,92.57
2019-02-22T07:54:45.756Z,92.57
2019-02-22T07:57:17.872Z,92.21
2019-02-22T07:59:47.415Z,91.83
2019-02-22T08:02:20.962Z,91.08
2019-02-22T08:04:51.221Z,90.51
2019-02-22T08:07:20.686Z,89.68
2019-02-22T08:09:50.350Z,89.21
2019-02-22T08:12:21.132Z,89.21
2019-02-22T08:14:51.186Z,88.22
2019-02-22T08:17:20.870Z,88.37
2019-02-22T08:19:53.758Z,88.05
2019-02-22T08:22:23.355Z,88.05
2019-02-22T08:24:53.139Z,88.11
2019-02-22T08:27:23.132Z,88.11
2019-02-22T08:29:52.750Z,87.92
2019-02-22T08:32:22.478Z,87.82
2019-02-22T08:34:52.640Z,87.34
2019-02-22T08:37:22.498Z,86.66
2019-02-22T08:39:58.627Z,87.40
2019-02-22T08:42:23.389Z,86.66
2019-02-22T08:48:24.080Z,86.27
2019-02-22T08:50:53.834Z,86.18
2019-02-22T08:55:57.892Z,83.22
2019-02-22T08:58:27.554Z,81.98
2019-02-22T09:00:57.394Z,83.12
2019-02-22T09:03:27.950Z,82.61
2019-02-22T09:05:57.757Z,83.53
2019-02-22T09:08:27.391Z,83.53
2019-02-22T09:11:00.606Z,83.65
2019-02-22T09:13:28.966Z,83.68
2019-02-22T09:16:00.974Z,84.02
2019-02-22T09:18:30.967Z,84.02
2019-02-22T09:21:06.479Z,83.47
2019-02-22T09:23:36.386Z,83.55
2019-02-22T09:26:06.496Z,83.77
2019-02-22T09:28:36.490Z,82.28
2019-02-22T09:31:06.215Z,83.04
2019-02-22T09:33:36.268Z,83.11
2019-02-22T09:36:06.181Z,83.11
2019-02-22T09:38:36.137Z,81.74
2019-02-22T09:41:06.485Z,81.74
2019-02-22T09:43:36.670Z,81.67
2019-02-22T09:46:07.761Z,81.66
2019-02-22T09:48:38.073Z,81.90
2019-02-22T09:51:08.834Z,81.04
2019-02-22T09:53:40.175Z,81.50
2019-02-22T09:56:10.041Z,78.08
2019-02-22T09:58:39.954Z,79.13
2019-02-22T10:01:09.878Z,78.91
2019-02-22T10:03:39.677Z,77.47
2019-02-22T10:06:09.467Z,77.47
2019-02-22T10:08:40.119Z,78.69
2019-02-22T10:11:11.061Z,79.02
2019-02-22T10:13:40.683Z,78.08
2019-02-22T10:16:12.999Z,79.20
2019-02-22T10:18:42.780Z,79.23
2019-02-22T10:21:12.589Z,79.15
2019-02-22T10:23:42.412Z,79.15
2019-02-22T10:26:15.441Z,78.07
2019-02-22T10:28:46.359Z,78.05
2019-02-22T10:31:16.105Z,77.40
2019-02-22T10:33:45.818Z,78.92
2019-02-22T10:36:17.182Z,77.47
2019-02-22T10:38:47.145Z,76.66
2019-02-22T10:41:19.649Z,75.94
2019-02-22T10:43:49.696Z,76.73
2019-02-22T10:46:21.994Z,72.12
2019-02-22T10:48:50.682Z,72.12
2019-02-22T10:51:20.375Z,74.47
2019-02-22T10:53:49.917Z,75.25
2019-02-22T10:56:19.604Z,73.32
2019-02-22T10:58:49.940Z,73.19
2019-02-22T11:01:20.657Z,72.93
2019-02-22T11:03:50.620Z,72.93
2019-02-22T11:06:20.230Z,73.82
2019-02-22T11:08:53.458Z,72.46
2019-02-22T11:11:23.397Z,72.46
2019-02-22T11:13:53.288Z,72.67
2019-02-22T11:16:23.148Z,72.49
2019-02-22T11:18:52.808Z,72.40
2019-02-22T11:21:22.359Z,72.57
2019-02-22T11:23:52.707Z,72.57
2019-02-22T11:26:22.494Z,73.69
2019-02-22T11:28:52.381Z,73.69
2019-02-22T11:31:22.244Z,72.70
2019-02-22T11:33:51.933Z,70.89
2019-02-22T11:36:22.794Z,70.89
2019-02-22T11:38:54.116Z,69.26
2019-02-22T11:41:27.270Z,69.26
2019-02-22T11:43:57.172Z,70.64
2019-02-22T11:46:27.426Z,70.64
2019-02-22T11:48:57.255Z,70.14
2019-02-22T11:51:27.152Z,70.14
2019-02-22T11:53:57.320Z,70.83
2019-02-22T11:56:26.994Z,70.99
2019-02-22T11:58:56.753Z,71.62
2019-02-22T12:01:27.364Z,71.62
2019-02-22T12:03:57.384Z,72.27
2019-02-22T12:06:29.081Z,72.27
2019-02-22T12:08:59.076Z,71.39
2019-02-22T12:11:28.591Z,71.39
2019-02-22T12:13:58.390Z,71.13
2019-02-22T12:16:28.245Z,71.09
2019-02-22T12:19:02.104Z,68.21
2019-02-22T12:21:31.839Z,68.14
2019-02-22T12:24:02.047Z,68.14
2019-02-22T12:26:31.943Z,68.36
2019-02-22T12:29:02.154Z,68.92
2019-02-22T12:31:33.172Z,68.42
2019-02-22T12:34:04.088Z,68.42
2019-02-22T12:36:35.006Z,68.00
2019-02-22T12:39:05.874Z,69.26
2019-02-22T12:41:35.676Z,69.26
2019-02-22T12:44:05.434Z,69.33
2019-02-22T12:46:35.679Z,70.10
2019-02-22T12:49:07.571Z,69.72
2019-02-22T12:51:37.320Z,69.34
2019-02-22T12:54:07.390Z,69.67
2019-02-22T12:59:08.723Z,69.21
2019-02-22T13:01:38.493Z,69.21
2019-02-22T13:04:08.049Z,68.64
2019-02-22T13:06:37.850Z,68.64
2019-02-22T13:09:08.728Z,67.65
2019-02-22T13:11:38.308Z,67.39
2019-02-22T13:14:09.640Z,67.09
2019-02-22T13:16:42.720Z,68.29
2019-02-22T13:19:16.603Z,68.29
2019-02-22T13:21:49.143Z,68.02
2019-02-22T13:24:19.343Z,66.40
2019-02-22T13:26:50.050Z,66.60
2019-02-22T13:29:20.060Z,66.60
2019-02-22T13:31:53.422Z,66.22
2019-02-22T13:34:23.380Z,66.50
2019-02-22T13:36:52.993Z,66.42
2019-02-22T13:39:22.635Z,66.71
2019-02-22T13:41:55.230Z,66.09
2019-02-22T13:44:24.882Z,66.09
2019-02-22T13:46:54.673Z,66.72
2019-02-22T13:49:24.361Z,67.32
2019-02-22T13:51:54.561Z,64.98
2019-02-22T13:54:27.948Z,64.82
2019-02-22T13:56:57.843Z,65.51
2019-02-22T13:59:27.867Z,65.51
2019-02-22T14:01:57.532Z,65.61
2019-02-22T14:04:27.222Z,64.54
2019-02-22T14:06:57.610Z,65.42
2019-02-22T14:09:28.828Z,66.05
2019-02-22T14:11:58.719Z,65.66
2019-02-22T14:14:28.880Z,65.66
2019-02-22T14:17:01.803Z,66.79
2019-02-22T14:19:31.721Z,66.79
2019-02-22T14:22:01.394Z,65.98
2019-02-22T14:24:31.102Z,66.01
2019-02-22T14:27:05.132Z,66.01
2019-02-22T14:29:35.184Z,65.24
2019-02-22T14:32:05.346Z,65.24
2019-02-22T14:34:35.292Z,64.86
2019-02-22T14:37:05.193Z,65.88
2019-02-22T14:39:34.819Z,66.04
2019-02-22T14:42:11.702Z,66.04
2019-02-22T14:44:45.160Z,66.87
2019-02-22T14:47:15.199Z,67.46
2019-02-22T14:49:45.192Z,68.14
2019-02-22T14:52:15.064Z,68.93
2019-02-22T14:54:48.087Z,68.93
2019-02-22T14:57:17.710Z,68.87
2019-02-22T14:59:48.148Z,67.63
2019-02-22T15:02:17.859Z,65.95
2019-02-22T15:07:18.473Z,64.24
2019-02-22T15:09:48.381Z,64.47
2019-02-22T15:12:21.976Z,64.47
2019-02-22T15:14:53.832Z,65.18
2019-02-22T15:17:29.518Z,64.95
2019-02-22T15:20:02.529Z,65.16
2019-02-22T15:22:32.388Z,65.16
2019-02-22T15:25:02.318Z,65.48
2019-02-22T15:27:32.387Z,66.09
2019-02-22T15:30:02.258Z,65.43
2019-02-22T15:32:33.249Z,65.25
2019-02-22T15:35:04.207Z,65.97
2019-02-22T15:37:44.223Z,65.68
2019-02-22T15:40:14.845Z,65.68
2019-02-22T15:42:45.669Z,66.71
2019-02-22T15:45:15.338Z,68.72
2019-02-22T15:47:45.295Z,68.72
2019-02-22T15:50:15.733Z,69.02
2019-02-22T15:52:46.114Z,69.02
2019-02-22T15:55:17.989Z,69.19
2019-02-22T15:57:49.443Z,69.97
2019-02-22T16:00:22.576Z,70.08
2019-02-22T16:02:59.026Z,70.26
2019-02-22T16:05:37.235Z,70.26
2019-02-22T16:08:08.158Z,70.44
2019-02-22T16:10:39.220Z,70.77
2019-02-22T16:13:09.787Z,70.77
2019-02-22T16:15:40.647Z,70.47
2019-02-22T16:18:13.604Z,71.34
2019-02-22T16:20:48.088Z,71.51
2019-02-22T16:23:17.668Z,71.51
2019-02-22T16:25:47.777Z,71.89
2019-02-22T16:28:17.450Z,71.52
2019-02-22T16:30:48.543Z,71.54
2019-02-22T16:33:19.277Z,71.54
2019-02-22T16:35:49.093Z,72.74
2019-02-22T16:38:19.296Z,72.74
2019-02-22T16:40:49.341Z,72.99
2019-02-22T16:43:20.140Z,73.28
2019-02-22T16:45:49.871Z,73.31
2019-02-22T16:48:20.124Z,73.31
2019-02-22T16:50:50.628Z,73.31
2019-02-22T16:53:21.046Z,73.44
2019-02-22T16:55:54.274Z,74.13
2019-02-22T16:58:24.305Z,74.13
2019-02-22T17:00:55.942Z,73.86
2019-02-22T17:03:25.739Z,73.86
2019-02-22T17:05:55.977Z,73.75
2019-02-22T17:08:25.928Z,74.27
2019-02-22T17:10:55.735Z,75.05
2019-02-22T17:13:25.390Z,75.27
2019-02-22T17:15:56.144Z,75.22
2019-02-22T17:18:29.139Z,75.22
2019-02-22T17:20:59.150Z,76.02
2019-02-22T17:23:29.058Z,76.94
2019-02-22T17:25:58.795Z,77.50
2019-02-22T17:28:32.193Z,77.50
2019-02-22T17:33:31.594Z,76.41
2019-02-22T17:36:01.237Z,76.41
2019-02-22T17:38:31.357Z,75.94
2019-02-22T17:41:03.308Z,78.13
2019-02-22T17:43:37.173Z,78.13
2019-02-22T17:46:09.966Z,77.56
2019-02-22T17:48:40.214Z,77.56
2019-02-22T17:51:10.252Z,77.85
2019-02-22T17:53:50.108Z,78.33
2019-02-22T17:56:19.963Z,79.45
2019-02-22T17:58:51.638Z,79.38
2019-02-22T18:01:21.521Z,79.76
2019-02-22T18:03:51.383Z,80.55
2019-02-22T18:06:21.556Z,80.55
2019-02-22T18:08:51.706Z,80.81
2019-02-22T18:11:21.367Z,81.48
2019-02-22T18:13:51.205Z,81.04
2019-02-22T18:16:21.054Z,81.41
2019-02-22T18:18:51.677Z,81.27
2019-02-22T18:21:24.088Z,81.41
2019-02-22T18:23:54.348Z,81.41
2019-02-22T18:26:25.270Z,82.40
2019-02-22T18:28:56.371Z,82.99
2019-02-22T18:31:27.025Z,82.82
2019-02-22T18:33:57.127Z,82.82
2019-02-22T18:36:28.137Z,82.78
2019-02-22T18:38:57.892Z,82.21
2019-02-22T18:41:28.175Z,82.45
2019-02-22T18:43:58.182Z,82.91
2019-02-22T18:46:28.461Z,83.13
2019-02-22T18:48:58.701Z,84.06
2019-02-22T18:51:30.163Z,84.06
2019-02-22T18:54:00.222Z,85.41
2019-02-22T18:56:30.672Z,84.90
2019-02-22T18:59:00.421Z,84.88
2019-02-22T19:01:30.273Z,84.83
2019-02-22T19:03:59.925Z,84.83
2019-02-22T19:06:31.414Z,85.81
2019-02-22T19:09:05.098Z,85.81
2019-02-22T19:11:34.152Z,85.78
2019-02-22T19:14:04.390Z,85.01
2019-02-22T19:16:34.350Z,85.01
2019-02-22T19:19:04.241Z,84.72
2019-02-22T19:21:37.026Z,84.89
2019-02-22T19:24:06.991Z,85.80
2019-02-22T19:26:39.827Z,85.80
2019-02-22T19:29:09.957Z,86.77
2019-02-22T19:31:42.523Z,85.46
2019-02-22T19:34:12.339Z,85.61
2019-02-22T19:36:42.672Z,85.57
2019-02-22T19:39:12.471Z,85.57
2019-02-22T19:41:42.080Z,86.58
2019-02-22T19:44:12.513Z,87.38
2019-02-22T19:46:42.084Z,86.44
2019-02-22T19:49:13.958Z,86.85
2019-02-22T19:51:47.561Z,87.26
2019-02-22T19:54:17.965Z,86.97
2019-02-22T19:56:48.096Z,87.85
2019-02-22T19:59:18.017Z,88.34
2019-02-22T20:01:48.128Z,87.93
2019-02-22T20:04:22.744Z,87.19
2019-02-22T20:06:56.556Z,87.19
2019-02-22T20:09:26.381Z,87.88
2019-02-22T20:11:56.748Z,88.66
2019-02-22T20:14:28.427Z,88.18
2019-02-22T20:16:58.647Z,87.87
2019-02-22T20:19:31.057Z,87.87
2019-02-22T20:22:02.578Z,88.56
2019-02-22T20:24:32.119Z,88.86
2019-02-22T20:27:02.265Z,88.86
2019-02-22T20:29:32.412Z,87.98
2019-02-22T20:32:02.407Z,88.66
2019-02-22T20:34:32.372Z,88.66
2019-02-22T20:37:08.654Z,88.63
2019-02-22T20:39:41.473Z,88.77
2019-02-22T20:42:11.421Z,88.87
2019-02-22T20:44:41.359Z,88.87
2019-02-22T20:47:11.314Z,88.30
2019-02-22T20:49:43.281Z,89.45
2019-02-22T20:52:13.199Z,89.20
2019-02-22T20:54:44.951Z,89.17
2019-02-22T20:57:14.637Z,89.17
2019-02-22T20:59:47.376Z,88.37
2019-02-22T21:02:17.287Z,88.79
2019-02-22T21:04:49.984Z,88.82
2019-02-22T21:07:19.859Z,87.90
2019-02-22T21:09:49.646Z,88.03
2019-02-22T21:12:20.382Z,88.03
2019-02-22T21:14:52.461Z,87.60
2019-02-22T21:17:22.523Z,87.60
2019-02-22T21:19:52.763Z,88.01
2019-02-22T21:22:22.677Z,87.55
2019-02-22T21:24:52.383Z,87.86
2019-02-22T21:27:22.485Z,87.86
2019-02-22T21:29:52.665Z,88.00
2019-02-22T21:32:22.497Z,87.51
2019-02-22T21:34:54.654Z,87.29
2019-02-22T21:37:24.766Z,87.06
2019-02-22T21:39:54.740Z,87.06
2019-02-22T21:42:25.631Z,88.34
2019-02-22T21:44:57.485Z,87.28
2019-02-22T21:47:28.137Z,87.28
2019-02-22T21:49:58.676Z,86.33
2019-02-22T21:52:28.474Z,86.33
2019-02-22T21:54:58.648Z,86.37
2019-02-22T21:57:29.162Z,86.15
2019-02-22T22:00:01.198Z,86.23
2019-02-22T22:02:31.894Z,86.97
2019-02-22T22:05:02.780Z,86.68
2019-02-22T22:07:32.772Z,86.08
2019-02-22T22:10:04.136Z,86.08
2019-02-22T22:12:34.395Z,86.61
2019-02-22T22:15:04.904Z,86.61
2019-02-22T22:17:35.091Z,86.79
2019-02-22T22:20:05.686Z,86.79
2019-02-22T22:22:35.305Z,86.63
2019-02-22T22:25:05.842Z,86.66
2019-02-22T22:27:37.558Z,86.89
2019-02-22T22:30:07.735Z,86.36
2019-02-22T22:32:37.389Z,86.36
2019-02-22T22:35:07.685Z,86.41
2019-02-22T22:37:40.968Z,86.41
2019-02-22T22:40:11.174Z,87.55
2019-02-22T22:42:44.046Z,87.55
2019-02-22T22:45:14.325Z,87.52
2019-02-22T22:47:47.494Z,86.46
2019-02-22T22:50:17.397Z,86.40
2019-02-22T22:52:47.924Z,86.37
2019-02-22T22:55:17.645Z,86.37
2019-02-22T22:57:47.768Z,85.83
2019-02-22T23:01:01.210Z,85.83
2019-02-22T23:03:31.016Z,86.06
2019-02-22T23:06:00.717Z,86.01
2019-02-22T23:08:30.936Z,85.79
2019-02-22T23:11:00.745Z,85.47
2019-02-22T23:13:30.732Z,85.47
2019-02-22T23:16:00.452Z,85.63
2019-02-22T23:18:30.394Z,85.13
2019-02-22T23:21:01.787Z,85.43
2019-02-22T23:23:31.445Z,85.51
2019-02-22T23:26:01.173Z,85.29
2019-02-22T23:28:31.769Z,85.29
2019-02-22T23:31:01.578Z,85.00
2019-02-22T23:33:31.390Z,85.51
2019-02-22T23:36:01.219Z,85.19
2019-02-22T23:38:31.253Z,85.20
2019-02-22T23:41:00.826Z,85.20
2019-02-22T23:43:31.087Z,85.08
2019-02-22T23:46:01.079Z,84.95
2019-02-22T23:48:31.002Z,84.95
2019-02-22T23:51:00.694Z,85.10
2019-02-22T23:53:32.738Z,84.80
2019-02-22T23:56:02.921Z,84.80
2019-02-22T23:58:32.686Z,84.63
